Time;durP1;ratioP1;P1;durP2;ratioP2;P2;SDS_P1;SDS_P2;PMS_P1;PMS_P2;Temp;Humidity;BMP_temperature;BMP_pressure;BME280_temperature;BME280_humidity;BME280_pressure;Samples;Min_cycle;Max_cycle;Signal;HPM_P1;HPM_P2
2022/04/24 00:02:24;;;;;;;;;17.67;17.67;;;;;16.88;49.80;99044.13;5076496;28;45524;-62
2022/04/24 00:04:49;;;;;;;;;15.00;15.00;;;;;16.87;49.34;99045.09;5064411;28;45594;-62
2022/04/24 00:07:15;;;;;;;;;16.00;16.00;;;;;16.86;50.00;99043.41;5057536;28;46721;-65
2022/04/24 00:09:40;;;;;;;;;16.00;15.00;;;;;16.90;50.22;99049.28;5055726;28;45608;-64
2022/04/24 00:12:07;;;;;;;;;15.67;15.67;;;;;16.90;49.50;99038.66;5057803;28;45347;-65
2022/04/24 00:14:32;;;;;;;;;14.67;14.67;;;;;16.89;50.17;99042.31;5067242;28;45612;-64
2022/04/24 00:16:57;;;;;;;;;17.00;15.33;;;;;16.89;50.10;99044.97;5066111;28;45469;-67
2022/04/24 00:19:23;;;;;;;;;15.67;15.67;;;;;16.91;49.80;99048.31;5057477;28;45411;-63
2022/04/24 00:21:48;;;;;;;;;14.67;14.67;;;;;16.86;49.58;99045.22;5061247;28;46151;-65
2022/04/24 00:24:14;;;;;;;;;15.67;15.67;;;;;16.83;49.42;99038.38;5072239;28;45372;-61
2022/04/24 00:26:39;;;;;;;;;15.33;15.33;;;;;16.76;50.20;99035.38;5077334;28;45459;-62
2022/04/24 00:29:05;;;;;;;;;17.00;14.33;;;;;16.82;49.96;99042.00;5076144;28;45462;-65
2022/04/24 00:31:30;;;;;;;;;14.67;14.67;;;;;16.81;50.13;99028.84;5077548;28;45484;-63
2022/04/24 00:33:56;;;;;;;;;15.00;15.00;;;;;16.82;49.68;99035.81;5077514;28;45545;-65
2022/04/24 00:36:21;;;;;;;;;12.67;12.67;;;;;16.84;50.12;99034.72;5064328;27;46161;-65
2022/04/24 00:38:46;;;;;;;;;16.33;16.33;;;;;16.82;50.01;99034.03;5063079;28;45432;-66
2022/04/24 00:41:12;;;;;;;;;18.67;14.67;;;;;16.84;49.58;99026.75;5077214;27;45451;-65
2022/04/24 00:43:37;;;;;;;;;18.67;18.67;;;;;16.84;49.46;99026.75;5071337;27;45655;-64
2022/04/24 00:46:42;;;;;;;;;17.67;17.00;;;;;16.84;49.50;99024.09;5056897;28;45472;-63
2022/04/24 00:49:09;;;;;;;;;13.33;13.00;;;;;16.85;49.46;99025.81;5014587;28;45556;-63
2022/04/24 00:51:37;;;;;;;;;19.33;17.67;;;;;16.83;49.79;99022.44;5049540;28;45368;-63
2022/04/24 00:54:05;;;;;;;;;16.33;16.00;;;;;16.76;50.17;99021.22;5057131;28;45545;-62
2022/04/24 00:56:32;;;;;;;;;18.00;18.00;;;;;16.74;49.88;99020.56;5067657;28;46226;-65
2022/04/24 00:58:59;;;;;;;;;17.33;17.33;;;;;16.72;50.11;99033.09;5075902;27;45589;-64
2022/04/24 01:01:24;;;;;;;;;17.33;17.33;;;;;16.69;49.90;99036.03;5076679;28;45519;-64
2022/04/24 01:03:50;;;;;;;;;15.00;15.00;;;;;16.66;50.65;99034.47;5077035;27;45431;-63
2022/04/24 01:06:15;;;;;;;;;21.67;18.67;;;;;16.65;50.84;99032.78;5077085;28;46271;-63
2022/04/24 01:08:41;;;;;;;;;21.00;18.00;;;;;16.66;50.46;99036.31;5063594;27;45447;-64
2022/04/24 01:11:06;;;;;;;;;22.33;21.00;;;;;16.61;50.81;99044.66;5070400;28;45459;-63
2022/04/24 01:13:32;;;;;;;;;20.33;20.33;;;;;16.48;51.62;99050.16;5057671;28;45422;-65
2022/04/24 01:15:58;;;;;;;;;23.33;21.00;;;;;16.38;50.70;99045.75;5077501;27;46466;-65
2022/04/24 01:18:25;;;;;;;;;19.00;18.33;;;;;16.30;51.55;99044.56;5066017;27;45544;-59
2022/04/24 01:20:51;;;;;;;;;18.33;18.33;;;;;16.28;51.90;99050.97;5064743;28;45630;-63
2022/04/24 01:23:17;;;;;;;;;24.00;19.67;;;;;16.29;51.16;99045.56;5064452;28;45394;-64
2022/04/24 01:25:42;;;;;;;;;16.67;15.33;;;;;16.22;51.56;99052.34;5058826;28;45418;-66
2022/04/24 01:28:08;;;;;;;;;18.33;18.33;;;;;16.17;51.32;99054.53;5056682;28;45519;-61
2022/04/24 01:30:35;;;;;;;;;20.33;18.33;;;;;16.19;51.13;99057.91;5068002;28;45481;-61
2022/04/24 01:33:00;;;;;;;;;21.67;20.67;;;;;16.24;52.21;99060.19;5073261;28;45564;-65
2022/04/24 01:35:25;;;;;;;;;21.67;21.67;;;;;16.27;51.30;99059.91;5064648;27;45571;-61
2022/04/24 01:37:51;;;;;;;;;16.33;16.33;;;;;16.23;51.79;99072.59;5056762;28;45571;-64
2022/04/24 01:40:16;;;;;;;;;22.33;21.00;;;;;16.18;51.68;99063.34;5056533;28;45487;-61
2022/04/24 01:42:42;;;;;;;;;19.00;19.00;;;;;16.18;51.42;99072.13;5059277;28;45605;-61
2022/04/24 01:45:08;;;;;;;;;20.00;20.00;;;;;16.15;51.42;99074.19;5064000;28;46000;-66
2022/04/24 01:47:34;;;;;;;;;19.33;16.67;;;;;16.12;51.33;99078.78;5063012;28;45373;-62
2022/04/24 01:50:00;;;;;;;;;18.33;18.33;;;;;16.11;51.61;99079.75;5076949;27;45440;-61
2022/04/24 01:52:26;;;;;;;;;16.67;16.67;;;;;16.07;51.82;99070.38;5075881;27;45680;-64
2022/04/24 01:54:52;;;;;;;;;20.67;20.33;;;;;16.10;51.95;99072.78;5088723;27;45982;-64
2022/04/24 01:57:17;;;;;;;;;18.67;17.33;;;;;16.09;51.93;99084.38;5095301;27;45507;-59
2022/04/24 01:59:43;;;;;;;;;19.33;19.00;;;;;16.09;51.50;99087.00;5079051;27;45436;-61
2022/04/24 02:02:08;;;;;;;;;21.67;19.00;;;;;16.05;51.36;99090.03;5064449;28;45521;-63
2022/04/24 02:04:33;;;;;;;;;19.67;19.67;;;;;16.05;52.09;99084.72;5061012;27;45476;-64
2022/04/24 02:06:59;;;;;;;;;21.00;21.00;;;;;16.07;51.69;99086.28;5064817;27;45495;-63
2022/04/24 02:09:24;;;;;;;;;23.67;21.00;;;;;16.06;51.39;99092.53;5075948;27;45426;-62
2022/04/24 02:11:49;;;;;;;;;24.33;23.33;;;;;16.08;51.95;99095.09;5070496;27;45621;-60
2022/04/24 02:14:15;;;;;;;;;20.33;19.00;;;;;16.07;51.70;99088.94;5060272;28;52724;-61
2022/04/24 02:16:40;;;;;;;;;20.00;20.00;;;;;16.06;51.30;99094.34;5075767;28;45509;-65
2022/04/24 02:19:05;;;;;;;;;21.00;21.00;;;;;16.05;51.52;99090.03;5070945;28;45908;-63
2022/04/24 02:21:31;;;;;;;;;19.67;19.67;;;;;16.03;51.85;99099.91;5063753;27;45405;-64
2022/04/24 02:23:56;;;;;;;;;23.67;23.00;;;;;15.97;51.29;99097.78;5080643;27;46167;-64
2022/04/24 02:26:22;;;;;;;;;17.67;16.67;;;;;15.93;51.96;99105.13;5055508;28;45348;-61
2022/04/24 02:28:47;;;;;;;;;20.33;19.33;;;;;15.92;51.65;99098.16;5060333;27;45551;-63
2022/04/24 02:31:12;;;;;;;;;22.67;21.00;;;;;15.90;50.99;99105.38;5058542;27;45691;-66
2022/04/24 02:33:38;;;;;;;;;20.00;18.67;;;;;15.88;50.76;99099.38;5067774;28;46050;-63
2022/04/24 02:36:04;;;;;;;;;20.00;19.00;;;;;15.85;51.37;99099.59;5070366;27;45315;-63
2022/04/24 02:38:29;;;;;;;;;15.33;15.33;;;;;15.87;50.74;99095.84;5055950;28;45483;-62
2022/04/24 02:40:55;;;;;;;;;12.33;12.33;;;;;15.83;51.01;99105.03;5055347;28;45567;-64
2022/04/24 02:43:20;;;;;;;;;19.00;19.00;;;;;15.86;50.21;99114.56;5054931;28;46178;-66
2022/04/24 02:45:46;;;;;;;;;20.00;17.33;;;;;15.79;50.32;99108.06;5056906;28;45361;-59
2022/04/24 02:48:12;;;;;;;;;17.67;16.33;;;;;15.80;50.51;99105.28;5058915;28;45408;-63
2022/04/24 02:50:39;;;;;;;;;15.00;14.33;;;;;15.77;50.94;99110.84;5058935;28;45491;-64
2022/04/24 02:53:06;;;;;;;;;17.67;17.67;;;;;15.74;50.96;99110.25;5077853;28;45408;-64
2022/04/24 02:55:31;;;;;;;;;21.00;19.33;;;;;15.72;51.06;99110.38;5076693;28;45373;-62
2022/04/24 02:57:57;;;;;;;;;20.00;19.00;;;;;15.72;51.36;99109.53;5063799;27;45454;-62
2022/04/24 03:00:25;;;;;;;;;19.67;18.67;;;;;15.70;50.85;99116.75;5058641;28;45402;-64
2022/04/24 03:02:51;;;;;;;;;16.00;16.00;;;;;15.65;51.10;99128.53;5058387;28;46209;-63
2022/04/24 03:05:19;;;;;;;;;18.67;18.67;;;;;15.61;51.22;99124.47;5070984;28;45417;-62
2022/04/24 03:07:44;;;;;;;;;22.00;19.33;;;;;15.26;50.86;99082.22;5078737;27;45375;-66
2022/04/24 03:10:10;;;;;;;;;19.00;17.33;;;;;15.58;51.16;99123.84;5078685;28;45521;-63
2022/04/24 03:12:36;;;;;;;;;17.67;16.00;;;;;15.59;51.68;99115.78;5077783;28;46044;-65
2022/04/24 03:15:04;;;;;;;;;17.67;17.33;;;;;15.59;50.60;99125.53;5068026;27;45381;-63
2022/04/24 03:17:32;;;;;;;;;19.00;18.67;;;;;15.53;50.66;99126.88;5074499;28;45660;-63
2022/04/24 03:19:58;;;;;;;;;17.33;16.33;;;;;15.54;51.17;99130.38;5078592;28;45447;-63
2022/04/24 03:22:24;;;;;;;;;17.00;15.67;;;;;15.52;50.77;99130.47;5070230;27;45383;-65
2022/04/24 03:24:50;;;;;;;;;17.33;14.33;;;;;15.52;50.67;99135.78;5074465;28;45471;-65
2022/04/24 03:27:15;;;;;;;;;19.00;19.00;;;;;15.57;51.40;99130.94;5078739;27;45432;-63
2022/04/24 03:29:41;;;;;;;;;15.33;14.67;;;;;15.57;50.24;99133.59;5072040;27;45439;-65
2022/04/24 03:32:06;;;;;;;;;18.33;17.33;;;;;15.59;50.61;99141.44;5073970;28;46136;-64
2022/04/24 03:34:32;;;;;;;;;18.00;18.00;;;;;15.61;50.46;99145.66;5076761;28;45525;-67
2022/04/24 03:36:57;;;;;;;;;16.00;16.00;;;;;15.49;50.53;99140.47;5062984;28;45401;-63
2022/04/24 03:39:22;;;;;;;;;17.67;17.67;;;;;15.54;50.84;99144.44;5078423;27;45374;-64
2022/04/24 03:41:47;;;;;;;;;20.00;19.00;;;;;15.54;50.02;99143.63;5078412;27;45525;-64
2022/04/24 03:44:13;;;;;;;;;21.33;20.67;;;;;15.56;50.25;99147.00;5068074;27;50168;-65
2022/04/24 03:46:38;;;;;;;;;20.33;17.67;;;;;15.59;50.50;99152.88;5058530;28;45417;-64
2022/04/24 03:49:03;;;;;;;;;17.67;17.67;;;;;15.59;50.13;99154.69;5089197;27;45547;-66
2022/04/24 03:51:29;;;;;;;;;18.00;18.00;;;;;15.59;50.91;99152.88;5068198;27;53044;-66
2022/04/24 03:53:54;;;;;;;;;18.00;16.33;;;;;15.60;51.08;99151.91;5073752;28;45430;-65
2022/04/24 03:56:19;;;;;;;;;19.33;19.33;;;;;15.63;49.74;99148.16;5058718;27;45485;-63
2022/04/24 03:58:45;;;;;;;;;19.33;19.33;;;;;15.62;50.81;99151.78;5057872;28;45418;-66
2022/04/24 04:01:12;;;;;;;;;18.00;17.00;;;;;15.56;51.15;99139.88;5062004;28;56482;-63
2022/04/24 04:03:38;;;;;;;;;23.00;21.33;;;;;15.59;50.32;99141.44;5076547;27;45509;-63
2022/04/24 04:06:03;;;;;;;;;22.00;19.00;;;;;15.53;50.55;99144.56;5058991;28;45573;-65
2022/04/24 04:08:29;;;;;;;;;19.00;19.00;;;;;15.60;50.66;99154.56;5078106;27;45589;-65
2022/04/24 04:10:54;;;;;;;;;20.33;19.00;;;;;15.62;50.35;99152.63;5071487;27;45609;-63
2022/04/24 04:13:20;;;;;;;;;20.33;18.33;;;;;15.53;50.33;99152.50;5056474;28;45357;-64
2022/04/24 04:15:45;;;;;;;;;21.00;18.67;;;;;15.51;50.16;99152.66;5068688;28;45445;-64
2022/04/24 04:18:10;;;;;;;;;18.33;16.00;;;;;15.48;50.25;99152.88;5077987;27;45385;-63
2022/04/24 04:20:35;;;;;;;;;20.00;18.67;;;;;15.43;49.87;99153.25;5073309;28;47006;-64
2022/04/24 04:23:03;;;;;;;;;20.33;20.33;;;;;15.39;50.48;99157.13;5060246;28;45580;-67
2022/04/24 04:25:28;;;;;;;;;23.00;20.67;;;;;15.38;50.49;99159.88;5069210;27;45337;-66
2022/04/24 04:27:54;;;;;;;;;20.33;20.33;;;;;15.41;50.31;99165.75;5057799;28;45526;-65
2022/04/24 04:30:20;;;;;;;;;19.00;19.00;;;;;15.45;50.06;99163.72;5059970;27;46341;-62
2022/04/24 04:32:46;;;;;;;;;20.00;19.00;;;;;15.43;50.73;99169.13;5058841;27;45504;-60
2022/04/24 04:35:12;;;;;;;;;18.00;18.00;;;;;15.42;50.33;99169.25;5057859;28;45450;-62
2022/04/24 04:37:39;;;;;;;;;25.00;21.00;;;;;15.45;50.64;99169.03;5066057;27;45611;-62
2022/04/24 04:40:06;;;;;;;;;18.00;18.00;;;;;15.42;50.32;99172.75;5077219;27;45453;-66
2022/04/24 04:42:31;;;;;;;;;19.33;19.00;;;;;15.37;50.59;99174.09;5077348;27;45330;-61
2022/04/24 04:44:59;;;;;;;;;21.33;21.00;;;;;15.31;50.61;99177.19;5067389;27;45316;-64
2022/04/24 04:47:24;;;;;;;;;21.00;20.33;;;;;15.28;50.99;99177.44;5076969;27;45402;-64
2022/04/24 04:49:50;;;;;;;;;24.67;23.67;;;;;15.30;50.57;99178.16;5070910;28;46251;-62
2022/04/24 04:52:16;;;;;;;;;22.00;20.00;;;;;15.24;50.69;99177.69;5076776;27;45473;-62
2022/04/24 04:54:41;;;;;;;;;21.67;21.33;;;;;15.20;49.94;99178.88;5076169;27;45374;-64
2022/04/24 04:57:07;;;;;;;;;22.67;21.00;;;;;15.29;50.35;99181.78;5075800;28;45355;-65
2022/04/24 04:59:32;;;;;;;;;24.33;24.33;;;;;15.28;50.75;99186.22;5073990;27;45459;-62
2022/04/24 05:01:57;;;;;;;;;21.67;18.67;;;;;15.24;50.61;99196.22;5072545;27;45451;-62
2022/04/24 05:04:23;;;;;;;;;27.00;25.33;;;;;15.19;51.50;99190.44;5073054;28;45536;-63
2022/04/24 05:06:48;;;;;;;;;21.33;19.67;;;;;15.22;51.67;99198.13;5077114;28;45363;-61
2022/04/24 05:09:13;;;;;;;;;21.67;21.00;;;;;15.29;51.24;99205.63;5067608;27;51178;-64
2022/04/24 05:11:39;;;;;;;;;20.00;19.33;;;;;15.24;52.30;99209.47;5060834;28;45403;-63
2022/04/24 05:14:05;;;;;;;;;22.00;20.67;;;;;15.22;52.52;99214.03;5057072;28;45513;-63
2022/04/24 05:16:31;;;;;;;;;22.67;20.00;;;;;15.18;52.88;99212.59;5070779;27;45550;-61
2022/04/24 05:18:58;;;;;;;;;19.00;19.00;;;;;15.17;53.14;99210.88;5058261;28;45632;-64
2022/04/24 05:21:23;;;;;;;;;19.00;19.00;;;;;15.18;52.54;99212.59;5056494;28;45392;-64
2022/04/24 05:23:49;;;;;;;;;20.67;19.67;;;;;15.22;53.26;99215.84;5065859;28;45381;-62
2022/04/24 05:26:15;;;;;;;;;20.00;19.00;;;;;15.23;52.41;99228.97;5076511;27;45516;-62
2022/04/24 05:28:40;;;;;;;;;24.67;23.00;;;;;15.18;53.60;99223.19;5070984;27;45751;-64
2022/04/24 05:31:05;;;;;;;;;23.00;21.67;;;;;15.16;53.35;99226.91;5074900;27;45643;-61
2022/04/24 05:33:31;;;;;;;;;23.33;22.67;;;;;15.12;53.26;99228.09;5056680;28;45396;-63
2022/04/24 05:35:56;;;;;;;;;24.33;22.00;;;;;15.17;53.56;99236.53;5056417;28;45589;-65
2022/04/24 05:38:22;;;;;;;;;21.33;20.33;;;;;15.10;53.62;99236.16;5058648;28;47111;-66
2022/04/24 05:40:47;;;;;;;;;24.33;24.33;;;;;15.08;54.05;99235.44;5076003;27;45415;-65
2022/04/24 05:43:12;;;;;;;;;26.00;23.33;;;;;15.10;52.99;99241.47;5061325;27;45525;-60
2022/04/24 05:45:38;;;;;;;;;24.00;22.67;;;;;15.07;53.94;99239.06;5056889;28;45640;-64
2022/04/24 05:48:03;;;;;;;;;22.67;20.00;;;;;15.05;53.42;99238.31;5056094;28;46042;-63
2022/04/24 05:50:29;;;;;;;;;21.00;18.33;;;;;15.09;54.18;99233.63;5069259;28;45429;-63
2022/04/24 05:52:56;;;;;;;;;23.33;21.67;;;;;15.07;53.82;99233.75;5076325;27;45584;-66
2022/04/24 05:55:22;;;;;;;;;22.00;20.67;;;;;15.07;53.97;99238.19;5076490;27;45624;-63
2022/04/24 05:57:49;;;;;;;;;24.33;23.33;;;;;15.07;53.28;99238.19;5075519;27;46315;-65
2022/04/24 06:00:16;;;;;;;;;22.67;22.00;;;;;15.01;53.90;99240.34;5061283;27;45447;-63
2022/04/24 06:02:43;;;;;;;;;22.00;22.00;;;;;15.00;53.81;99237.81;5069769;27;45529;-60
2022/04/24 06:05:10;;;;;;;;;24.33;22.67;;;;;15.09;52.88;99247.69;5060131;27;45497;-64
2022/04/24 06:07:36;;;;;;;;;25.67;25.00;;;;;15.11;53.97;99237.84;5067053;28;46294;-66
2022/04/24 06:10:01;;;;;;;;;24.00;23.00;;;;;15.14;53.94;99247.38;5059290;28;45393;-65
2022/04/24 06:12:27;;;;;;;;;24.33;21.67;;;;;15.15;52.98;99257.84;5075913;27;45447;-64
2022/04/24 06:14:52;;;;;;;;;26.67;25.33;;;;;15.20;53.28;99260.13;5071428;27;45612;-62
2022/04/24 06:17:17;;;;;;;;;25.33;24.00;;;;;15.17;52.76;99266.50;5073190;27;46173;-61
2022/04/24 06:19:42;;;;;;;;;24.33;23.00;;;;;15.08;52.24;99259.25;5059470;28;49988;-65
2022/04/24 06:22:08;;;;;;;;;24.33;24.33;;;;;15.05;52.73;99256.84;5069095;28;45539;-62
2022/04/24 06:24:33;;;;;;;;;25.00;25.00;;;;;15.07;52.91;99256.72;5059828;27;45517;-63
2022/04/24 06:26:59;;;;;;;;;33.33;31.67;;;;;15.08;52.30;99258.44;5055410;28;45489;-64
2022/04/24 06:29:24;;;;;;;;;31.67;30.33;;;;;15.12;52.64;99259.88;5066131;28;45428;-63
2022/04/24 06:31:50;;;;;;;;;29.33;28.33;;;;;15.13;52.64;99264.22;5063813;27;45508;-66
2022/04/24 06:34:15;;;;;;;;;29.00;28.00;;;;;15.15;51.91;99272.88;5070075;28;45473;-63
2022/04/24 06:36:40;;;;;;;;;24.00;22.33;;;;;15.16;52.34;99274.56;5061895;27;45594;-63
2022/04/24 06:39:06;;;;;;;;;31.67;30.67;;;;;15.09;51.49;99268.88;5055503;28;45525;-61
2022/04/24 06:41:31;;;;;;;;;29.67;28.33;;;;;15.10;51.67;99275.03;5061582;27;45541;-64
2022/04/24 06:43:57;;;;;;;;;29.67;28.33;;;;;15.09;52.16;99270.69;5055570;28;45588;-64
2022/04/24 06:46:23;;;;;;;;;33.33;31.67;;;;;15.07;52.18;99277.91;5071058;28;45471;-66
2022/04/24 06:48:49;;;;;;;;;32.00;31.00;;;;;15.13;51.64;99285.41;5075786;27;45434;-66
2022/04/24 06:51:14;;;;;;;;;29.67;28.00;;;;;15.12;51.90;99279.25;5075243;27;45395;-62
2022/04/24 06:53:40;;;;;;;;;29.00;28.33;;;;;15.16;51.40;99282.53;5072499;28;45599;-64
2022/04/24 06:56:06;;;;;;;;;31.67;31.67;;;;;15.20;51.52;99284.81;5074886;27;45484;-65
2022/04/24 06:58:32;;;;;;;;;31.67;28.67;;;;;15.25;51.39;99293.25;5070508;28;45386;-64
2022/04/24 07:00:57;;;;;;;;;27.67;27.67;;;;;15.23;51.34;99281.94;5073509;27;45447;-64
2022/04/24 07:03:24;;;;;;;;;30.33;28.33;;;;;15.28;51.65;99283.38;5061311;28;45487;-64
2022/04/24 07:05:54;;;;;;;;;29.67;26.00;;;;;15.35;50.74;99289.91;5072024;27;45532;-64
2022/04/24 07:08:21;;;;;;;;;34.33;30.67;;;;;15.43;50.98;99295.47;5073581;28;45532;-67
2022/04/24 07:10:46;;;;;;;;;35.33;31.00;;;;;15.33;51.32;99287.38;5062376;27;45499;-63
2022/04/24 07:13:12;;;;;;;;;38.67;33.00;;;;;15.46;51.32;99293.44;5071089;28;45324;-64
2022/04/24 07:15:39;;;;;;;;;30.00;30.00;;;;;15.43;50.27;99291.00;5075171;27;45319;-65
2022/04/24 07:18:05;;;;;;;;;32.67;32.00;;;;;15.49;50.48;99299.47;5072633;27;45879;-67
2022/04/24 07:20:31;;;;;;;;;30.33;30.33;;;;;15.55;50.67;99298.97;5075325;28;45448;-66
2022/04/24 07:23:00;;;;;;;;;31.67;30.67;;;;;15.60;49.84;99294.19;5068032;27;45474;-62
2022/04/24 07:25:27;;;;;;;;;34.00;31.33;;;;;15.64;50.28;99293.84;5072935;27;46167;-64
2022/04/24 07:27:53;;;;;;;;;39.33;34.00;;;;;15.67;50.49;99306.00;5063768;27;45461;-66
2022/04/24 07:30:20;;;;;;;;;37.67;33.33;;;;;15.67;50.59;99304.19;5056380;27;45643;-63
2022/04/24 07:32:51;;;;;;;;;35.33;31.67;;;;;15.67;50.46;99316.59;5074187;28;45517;-62
2022/04/24 07:35:20;;;;;;;;;37.00;33.33;;;;;15.67;50.27;99317.44;5078140;28;45431;-61
2022/04/24 07:37:46;;;;;;;;;39.00;33.33;;;;;15.68;49.79;99303.25;5078225;27;45449;-61
2022/04/24 07:40:14;;;;;;;;;39.33;32.67;;;;;15.71;50.32;99309.28;5077219;27;45549;-61
2022/04/24 07:42:55;;;;;;;;;36.33;31.67;;;;;15.74;50.41;99322.28;5072344;28;45620;-62
2022/04/24 07:45:33;;;;;;;;;37.67;34.00;;;;;15.71;50.17;99303.97;5068511;28;45512;-62
2022/04/24 07:48:00;;;;;;;;;40.33;35.67;;;;;15.76;50.15;99321.22;5063930;28;45970;-59
2022/04/24 07:50:32;;;;;;;;;39.67;34.33;;;;;15.77;49.34;99316.75;5078270;27;45382;-62
2022/04/24 07:52:58;;;;;;;;;37.33;33.33;;;;;15.79;49.36;99325.44;5064809;27;45608;-64
2022/04/24 07:55:24;;;;;;;;;40.67;36.00;;;;;15.76;48.85;99320.38;5057413;28;46263;-67
2022/04/24 07:57:54;;;;;;;;;37.67;34.33;;;;;15.77;48.89;99317.63;5067732;28;45501;-68
2022/04/24 08:00:22;;;;;;;;;34.67;33.33;;;;;15.80;49.29;99320.03;5067033;27;45510;-61
2022/04/24 08:02:48;;;;;;;;;43.00;37.00;;;;;15.78;49.95;99323.75;5076960;28;45539;-61
2022/04/24 08:05:27;;;;;;;;;38.33;33.67;;;;;15.83;49.39;99329.56;5077683;27;45523;-61
2022/04/24 08:07:53;;;;;;;;;40.67;36.67;;;;;15.88;49.24;99322.94;5057300;28;45448;-61
2022/04/24 08:10:20;;;;;;;;;35.67;33.67;;;;;15.90;49.09;99330.75;5079116;27;45531;-60
2022/04/24 08:12:47;;;;;;;;;34.33;33.33;;;;;15.93;48.48;99325.19;5076753;27;45496;-59
2022/04/24 08:15:12;;;;;;;;;34.00;31.67;;;;;15.98;49.08;99332.81;5057087;28;45442;-59
2022/04/24 08:17:38;;;;;;;;;43.00;36.50;;;;;15.99;48.65;99330.03;5061610;28;45539;-60
2022/04/24 08:20:05;;;;;;;;;40.00;34.00;;;;;16.01;49.03;99336.09;5076508;28;45531;-60
2022/04/24 08:22:41;;;;;;;;;41.33;35.00;;;;;16.00;48.88;99333.53;5076911;27;45569;-66
2022/04/24 08:25:08;;;;;;;;;42.25;37.00;;;;;16.00;48.40;99342.34;5061710;28;46286;-66
2022/04/24 08:27:34;;;;;;;;;46.50;38.50;;;;;16.00;48.90;99342.34;5073325;27;45482;-66
2022/04/24 08:30:00;;;;;;;;;39.00;34.50;;;;;15.98;48.55;99341.59;5072197;28;45666;-65
2022/04/24 08:32:26;;;;;;;;;47.25;38.50;;;;;15.95;48.32;99346.31;5075301;27;45417;-62
2022/04/24 08:34:51;;;;;;;;;41.75;36.50;;;;;15.94;48.48;99345.47;5059918;28;45479;-61
2022/04/24 08:37:16;;;;;;;;;43.00;38.00;;;;;15.99;48.92;99339.81;5060509;28;45538;-62
2022/04/24 08:39:42;;;;;;;;;42.67;34.33;;;;;16.03;48.90;99343.91;5060545;28;45612;-62
2022/04/24 08:42:11;;;;;;;;;40.67;35.33;;;;;16.08;48.43;99342.56;5059358;28;45612;-63
2022/04/24 08:44:39;;;;;;;;;43.00;36.00;;;;;16.08;48.57;99337.28;5076583;27;46004;-61
2022/04/24 08:47:06;;;;;;;;;42.67;34.67;;;;;16.16;48.26;99343.78;5071911;28;45397;-63
2022/04/24 08:49:32;;;;;;;;;38.50;33.75;;;;;16.20;48.48;99345.22;5076865;27;45470;-64
2022/04/24 08:52:01;;;;;;;;;47.00;39.75;;;;;16.22;47.79;99343.28;5069917;27;45617;-60
2022/04/24 08:54:28;;;;;;;;;39.67;35.67;;;;;16.26;48.00;99347.41;5070171;28;47019;-64
2022/04/24 08:56:56;;;;;;;;;39.00;34.25;;;;;16.29;47.97;99349.81;5076007;27;45441;-61
2022/04/24 08:59:22;;;;;;;;;37.33;34.00;;;;;16.25;48.33;99341.25;5074597;27;45456;-59
2022/04/24 09:01:49;;;;;;;;;42.33;35.67;;;;;16.34;47.72;99353.78;5066630;28;45664;-59
2022/04/24 09:04:15;;;;;;;;;42.00;36.67;;;;;16.35;47.99;99346.66;5068951;27;45552;-58
2022/04/24 09:06:41;;;;;;;;;43.00;36.00;;;;;16.40;48.24;99349.81;5064167;28;45441;-60
2022/04/24 09:09:07;;;;;;;;;46.33;38.00;;;;;16.44;47.68;99361.00;5067605;27;45472;-61
2022/04/24 09:11:33;;;;;;;;;39.67;35.00;;;;;16.43;47.43;99346.91;5071917;28;45521;-60
2022/04/24 09:16:47;;;;;;;;;39.00;34.33;;;;;16.57;47.26;99351.94;5073339;28;45453;-62
2022/04/24 09:19:23;;;;;;;;;41.67;34.67;;;;;16.57;47.40;99351.94;5060904;27;45592;-60
2022/04/24 09:21:54;;;;;;;;;37.67;34.33;;;;;16.64;47.55;99364.75;5057395;28;45512;-58
2022/04/24 09:24:27;;;;;;;;;44.67;39.00;;;;;16.64;47.04;99373.53;5059049;28;47281;-57
2022/04/24 09:26:56;;;;;;;;;44.00;34.67;;;;;16.61;46.90;99365.00;5062704;28;45504;-59
2022/04/24 09:29:23;;;;;;;;;40.33;33.67;;;;;16.66;47.04;99376.09;5059514;28;45465;-58
2022/04/24 09:31:50;;;;;;;;;41.67;36.67;;;;;16.66;46.34;99376.09;5071412;28;45618;-58
2022/04/24 09:34:17;;;;;;;;;42.33;35.33;;;;;16.68;46.80;99374.97;5076383;27;45524;-58
2022/04/24 09:37:08;;;;;;;;;42.00;37.67;;;;;16.70;46.78;99370.38;5071985;27;45504;-59
2022/04/24 09:39:35;;;;;;;;;39.67;34.00;;;;;16.76;47.28;99371.69;5063446;28;45470;-58
2022/04/24 09:42:09;;;;;;;;;38.67;35.33;;;;;16.83;46.72;99370.28;5072979;27;45597;-59
2022/04/24 09:44:44;;;;;;;;;39.67;34.00;;;;;16.89;46.37;99375.09;5056309;28;46087;-58
2022/04/24 09:47:11;;;;;;;;;38.33;33.00;;;;;16.93;46.13;99373.03;5055863;28;45463;-57
2022/04/24 09:49:39;;;;;;;;;40.00;35.67;;;;;17.00;45.56;99372.41;5074074;28;45468;-58
2022/04/24 09:52:13;;;;;;;;;41.00;35.00;;;;;16.96;45.40;99381.59;5069868;28;45466;-58
2022/04/24 09:54:49;;;;;;;;;36.00;32.33;;;;;16.98;45.22;99384.97;5060494;28;45489;-59
2022/04/24 09:57:16;;;;;;;;;34.00;31.67;;;;;16.99;45.75;99381.34;5076274;27;45474;-59
2022/04/24 09:59:44;;;;;;;;;41.67;35.67;;;;;17.06;45.08;99397.66;5074517;27;45605;-59
2022/04/24 10:02:11;;;;;;;;;37.00;32.00;;;;;17.09;45.43;99383.25;5069278;27;45458;-59
2022/04/24 10:04:38;;;;;;;;;36.00;33.00;;;;;17.17;45.26;99391.44;5063487;28;46365;-59
2022/04/24 10:07:08;;;;;;;;;39.33;30.33;;;;;17.20;45.34;99394.69;5069510;27;45519;-59
2022/04/24 10:09:39;;;;;;;;;39.67;33.00;;;;;17.23;45.61;99391.78;5070201;27;45533;-59
2022/04/24 10:12:07;;;;;;;;;40.00;36.00;;;;;17.28;45.36;99399.38;5063085;28;45334;-59
2022/04/24 10:14:38;;;;;;;;;34.33;33.00;;;;;17.29;44.82;99392.25;5075789;27;46181;-59
2022/04/24 10:17:33;;;;;;;;;37.33;34.00;;;;;17.34;44.99;99400.69;5067354;27;45477;-59
2022/04/24 10:20:36;;;;;;;;;43.67;36.33;;;;;17.38;44.47;99415.38;5056149;28;45553;-58
2022/04/24 10:23:01;;;;;;;;;38.00;33.33;;;;;17.31;45.08;99398.28;5070747;27;45473;-62
2022/04/24 10:25:37;;;;;;;;;33.67;31.67;;;;;17.41;44.78;99409.84;5071476;27;45465;-61
2022/04/24 10:28:11;;;;;;;;;34.67;33.00;;;;;17.35;44.63;99405.84;5066715;28;45602;-60
2022/04/24 10:30:37;;;;;;;;;38.67;33.00;;;;;17.39;44.30;99406.47;5059051;28;45592;-60
2022/04/24 10:33:28;;;;;;;;;36.67;33.00;;;;;17.43;44.34;99426.50;5065931;28;45695;-60
2022/04/24 10:36:02;;;;;;;;;34.33;33.00;;;;;17.48;44.20;99421.63;5060191;28;45468;-60
2022/04/24 10:38:29;;;;;;;;;37.33;33.67;;;;;17.50;44.44;99429.50;5058498;27;45514;-60
2022/04/24 10:41:25;;;;;;;;;34.67;31.00;;;;;17.48;44.32;99431.44;5068733;27;45454;-60
2022/04/24 10:43:54;;;;;;;;;35.33;33.00;;;;;17.50;44.35;99440.13;5058054;27;45508;-61
2022/04/24 10:46:27;;;;;;;;;38.67;34.33;;;;;17.52;44.25;99443.50;5072020;27;46184;-60
2022/04/24 10:48:53;;;;;;;;;36.00;32.33;;;;;17.55;44.12;99435.28;5055305;27;45585;-62
2022/04/24 10:51:30;;;;;;;;;39.33;34.67;;;;;17.61;44.53;99445.41;5057212;27;45470;-60
2022/04/24 10:54:13;;;;;;;;;36.67;32.33;;;;;17.68;44.51;99449.25;5071218;27;45537;-63
2022/04/24 10:56:42;;;;;;;;;38.67;33.00;;;;;17.70;44.19;99443.78;5054958;28;46223;-62
2022/04/24 10:59:16;;;;;;;;;34.33;31.33;;;;;17.74;44.63;99446.06;5065049;28;45487;-64
2022/04/24 11:01:50;;;;;;;;;34.33;31.67;;;;;17.82;44.62;99446.28;5060818;28;45532;-63
2022/04/24 11:04:17;;;;;;;;;37.00;31.67;;;;;17.91;45.09;99439.34;5069723;28;45547;-60
2022/04/24 11:06:58;;;;;;;;;36.33;32.00;;;;;18.04;44.92;99442.66;5064951;28;45534;-60
2022/04/24 11:09:30;;;;;;;;;33.00;30.00;;;;;18.07;44.80;99442.41;5065706;28;45516;-61
2022/04/24 11:12:01;;;;;;;;;38.33;34.00;;;;;18.20;43.99;99455.50;5062057;28;45588;-60
2022/04/24 11:14:28;;;;;;;;;37.67;33.00;;;;;18.22;43.59;99442.09;5070817;28;45584;-60
2022/04/24 11:16:59;;;;;;;;;34.33;30.67;;;;;18.19;43.99;99453.84;5058711;28;46230;-60
2022/04/24 11:19:30;;;;;;;;;38.33;33.33;;;;;18.30;44.10;99451.09;5058178;28;45473;-60
2022/04/24 11:21:57;;;;;;;;;30.33;27.00;;;;;18.39;44.20;99454.78;5058061;28;45359;-60